Time;durP1;ratioP1;P1;durP2;ratioP2;P2;SDS_P1;SDS_P2;PMS_P1;PMS_P2;Temp;Humidity;BMP_temperature;BMP_pressure;BME280_temperature;BME280_humidity;BME280_pressure;Samples;Min_cycle;Max_cycle;Signal;HPM_P1;HPM_P2
2022/09/24 00:01:18;;;;;;;5.97;2.22;;;;;;;;;;3393320;42;20630;-59
2022/09/24 00:03:49;;;;;;;6.43;2.42;;;;;;;;;;3393262;42;20595;-58
2022/09/24 00:06:17;;;;;;;8.03;2.00;;;;;;;;;;3393208;42;20639;-59
2022/09/24 00:08:48;;;;;;;6.60;2.10;;;;;;;;;;3393432;42;20121;-62
2022/09/24 00:11:14;;;;;;;9.23;2.25;;;;;;;;;;3393203;42;20095;-57
2022/09/24 00:13:40;;;;;;;9.80;2.30;;;;;;;;;;3393257;42;20187;-58
2022/09/24 00:16:08;;;;;;;8.93;2.22;;;;;;;;;;3382915;42;20117;-62
2022/09/24 00:18:34;;;;;;;7.07;2.10;;;;;;;;;;3393436;42;20542;-58
2022/09/24 00:21:00;;;;;;;7.13;2.30;;;;;;;;;;3393306;42;20997;-60
2022/09/24 00:23:26;;;;;;;8.30;2.40;;;;;;;;;;3384474;42;20118;-57
2022/09/24 00:28:36;;;;;;;9.05;2.30;;;;;;;;;;3391549;42;20141;-58
2022/09/24 00:31:06;;;;;;;11.70;2.30;;;;;;;;;;3393320;42;20726;-57
2022/09/24 00:33:33;;;;;;;7.47;2.30;;;;;;;;;;3381703;42;20087;-60
2022/09/24 00:36:03;;;;;;;7.53;2.33;;;;;;;;;;3393053;42;20113;-62
2022/09/24 00:38:32;;;;;;;7.93;2.28;;;;;;;;;;3394426;42;20155;-60
2022/09/24 00:40:58;;;;;;;8.82;2.33;;;;;;;;;;3383830;42;20091;-58
2022/09/24 00:43:27;;;;;;;10.13;2.80;;;;;;;;;;3393427;42;20082;-60
2022/09/24 00:45:56;;;;;;;8.80;2.40;;;;;;;;;;3393457;42;20595;-57
2022/09/24 00:48:22;;;;;;;9.85;2.60;;;;;;;;;;3395116;42;20555;-58
2022/09/24 00:50:48;;;;;;;8.93;2.42;;;;;;;;;;3376288;42;20546;-59
2022/09/24 00:53:18;;;;;;;11.07;2.80;;;;;;;;;;3383260;42;20141;-58
2022/09/24 00:55:46;;;;;;;9.60;2.37;;;;;;;;;;3382488;42;20107;-60
2022/09/24 00:58:13;;;;;;;7.85;2.05;;;;;;;;;;3393042;42;20221;-60
2022/09/24 01:00:39;;;;;;;8.43;2.20;;;;;;;;;;3376730;42;20566;-62
2022/09/24 01:03:11;;;;;;;6.97;2.30;;;;;;;;;;3374554;42;20099;-61
2022/09/24 01:05:37;;;;;;;7.20;2.15;;;;;;;;;;3384953;42;20171;-58
2022/09/24 01:08:05;;;;;;;10.10;2.30;;;;;;;;;;3395075;42;20104;-62
2022/09/24 01:11:02;;;;;;;8.25;2.25;;;;;;;;;;3384585;42;20099;-57
2022/09/24 01:13:54;;;;;;;7.13;2.40;;;;;;;;;;3376146;42;20109;-58
2022/09/24 01:16:38;;;;;;;9.73;2.83;;;;;;;;;;3385309;42;20100;-57
2022/09/24 01:19:43;;;;;;;8.35;2.40;;;;;;;;;;3384356;42;20094;-59
2022/09/24 01:22:43;;;;;;;10.27;2.40;;;;;;;;;;3371809;42;20094;-61
2022/09/24 01:25:37;;;;;;;8.02;2.30;;;;;;;;;;3393147;42;20155;-59
2022/09/24 01:28:15;;;;;;;7.85;2.40;;;;;;;;;;3394720;42;20156;-59
2022/09/24 01:30:41;;;;;;;7.53;2.20;;;;;;;;;;3395593;42;20075;-57
2022/09/24 01:33:12;;;;;;;10.07;2.50;;;;;;;;;;3378274;42;20074;-57
2022/09/24 01:35:43;;;;;;;6.90;2.70;;;;;;;;;;3375311;42;20297;-59
2022/09/24 01:38:14;;;;;;;7.95;3.00;;;;;;;;;;3386259;42;20675;-60
2022/09/24 01:40:41;;;;;;;8.00;2.40;;;;;;;;;;3384369;42;20074;-59
2022/09/24 01:43:07;;;;;;;10.60;2.30;;;;;;;;;;3381094;42;20578;-59
2022/09/24 01:45:33;;;;;;;6.90;2.30;;;;;;;;;;3394778;42;20089;-62
2022/09/24 01:47:59;;;;;;;7.87;2.30;;;;;;;;;;3377911;42;20137;-60
2022/09/24 01:50:26;;;;;;;9.38;2.38;;;;;;;;;;3384737;42;20877;-59
2022/09/24 01:53:01;;;;;;;11.52;2.75;;;;;;;;;;3378157;42;20135;-58
2022/09/24 01:55:31;;;;;;;7.30;2.13;;;;;;;;;;3373756;42;20086;-59
2022/09/24 01:58:00;;;;;;;8.10;2.33;;;;;;;;;;3393636;42;20642;-61
2022/09/24 02:00:27;;;;;;;8.70;2.40;;;;;;;;;;3378055;42;20090;-57
2022/09/24 02:03:08;;;;;;;8.18;2.40;;;;;;;;;;3393982;42;20097;-59
2022/09/24 02:05:42;;;;;;;10.05;2.63;;;;;;;;;;3377065;42;20106;-60
2022/09/24 02:08:13;;;;;;;10.07;2.55;;;;;;;;;;3382930;42;20113;-58
2022/09/24 02:11:00;;;;;;;8.43;2.55;;;;;;;;;;3374809;42;20097;-58
2022/09/24 02:13:28;;;;;;;6.53;2.40;;;;;;;;;;3392488;42;20091;-60
2022/09/24 02:15:56;;;;;;;11.70;2.50;;;;;;;;;;3385184;42;20078;-58
2022/09/24 02:18:25;;;;;;;9.82;2.40;;;;;;;;;;3385073;42;20560;-59
2022/09/24 02:20:51;;;;;;;10.73;2.72;;;;;;;;;;3385359;42;20097;-58
2022/09/24 02:23:17;;;;;;;9.50;2.67;;;;;;;;;;3385558;42;20090;-61
2022/09/24 02:25:49;;;;;;;8.50;2.20;;;;;;;;;;3385218;42;20145;-58
2022/09/24 02:28:17;;;;;;;9.45;2.75;;;;;;;;;;3374087;42;20168;-58
2022/09/24 02:30:48;;;;;;;13.65;2.65;;;;;;;;;;3394044;42;20536;-62
2022/09/24 02:35:59;;;;;;;8.85;2.30;;;;;;;;;;3385101;42;20086;-59
2022/09/24 02:38:25;;;;;;;9.87;2.13;;;;;;;;;;3376081;42;20099;-59
2022/09/24 02:40:52;;;;;;;9.25;2.88;;;;;;;;;;3393100;42;20086;-57
2022/09/24 02:43:18;;;;;;;10.20;2.40;;;;;;;;;;3392149;42;20101;-57
2022/09/24 02:45:44;;;;;;;9.65;2.58;;;;;;;;;;3394451;42;20086;-59
2022/09/24 02:48:10;;;;;;;12.83;2.63;;;;;;;;;;3394172;42;20507;-58
2022/09/24 02:50:35;;;;;;;8.63;2.42;;;;;;;;;;3393897;42;20086;-57
2022/09/24 02:53:01;;;;;;;7.57;2.40;;;;;;;;;;3393986;42;20149;-60
2022/09/24 02:55:27;;;;;;;8.38;2.78;;;;;;;;;;3394460;42;20082;-57
2022/09/24 02:57:53;;;;;;;8.37;2.50;;;;;;;;;;3391592;42;20091;-60
2022/09/24 03:00:19;;;;;;;9.63;2.65;;;;;;;;;;3394080;42;20137;-61
2022/09/24 03:02:46;;;;;;;9.60;2.67;;;;;;;;;;3394084;42;20109;-58
2022/09/24 03:05:17;;;;;;;10.10;2.78;;;;;;;;;;3394138;42;20141;-58
2022/09/24 03:07:43;;;;;;;9.65;2.75;;;;;;;;;;3394140;42;20812;-57
2022/09/24 03:10:10;;;;;;;6.30;2.50;;;;;;;;;;3393902;42;20133;-57
2022/09/24 03:12:36;;;;;;;9.70;2.70;;;;;;;;;;3384999;42;20096;-58
2022/09/24 03:15:02;;;;;;;8.68;2.72;;;;;;;;;;3393905;42;20504;-58
2022/09/24 03:17:28;;;;;;;8.98;3.20;;;;;;;;;;3394046;42;20099;-61
2022/09/24 03:19:54;;;;;;;11.20;3.33;;;;;;;;;;3393649;42;20110;-59
2022/09/24 03:22:20;;;;;;;10.07;4.00;;;;;;;;;;3393755;42;20380;-64
2022/09/24 03:24:46;;;;;;;8.68;3.70;;;;;;;;;;3393826;42;20257;-60
2022/09/24 03:27:12;;;;;;;8.75;3.95;;;;;;;;;;3393591;42;20100;-59
2022/09/24 03:32:22;;;;;;;9.77;3.83;;;;;;;;;;3382598;42;20078;-61
2022/09/24 03:34:48;;;;;;;10.02;3.90;;;;;;;;;;3393509;42;20078;-59
2022/09/24 03:37:14;;;;;;;10.32;4.70;;;;;;;;;;3393446;42;20078;-59
2022/09/24 03:39:40;;;;;;;12.52;4.45;;;;;;;;;;3393825;42;20584;-61
2022/09/24 03:42:06;;;;;;;10.73;4.33;;;;;;;;;;3393521;42;20599;-57
2022/09/24 03:44:32;;;;;;;11.30;4.90;;;;;;;;;;3393459;42;20097;-59
2022/09/24 03:46:58;;;;;;;12.90;5.10;;;;;;;;;;3393317;42;20094;-62
2022/09/24 03:49:24;;;;;;;17.37;5.23;;;;;;;;;;3393406;42;20071;-60
2022/09/24 03:51:51;;;;;;;11.30;5.20;;;;;;;;;;3382675;42;20079;-59
2022/09/24 03:54:17;;;;;;;10.63;5.55;;;;;;;;;;3392060;42;20160;-58
2022/09/24 03:56:43;;;;;;;12.13;5.60;;;;;;;;;;3393398;42;20094;-58
2022/09/24 03:59:12;;;;;;;13.15;6.00;;;;;;;;;;3393674;42;20546;-56
2022/09/24 04:01:38;;;;;;;17.47;5.53;;;;;;;;;;3385743;42;20541;-57
2022/09/24 04:04:04;;;;;;;13.15;6.20;;;;;;;;;;3393438;42;20140;-59
2022/09/24 04:06:30;;;;;;;13.25;6.25;;;;;;;;;;3390871;42;20093;-57
2022/09/24 04:08:56;;;;;;;14.73;6.00;;;;;;;;;;3383976;42;20099;-59
2022/09/24 04:11:23;;;;;;;14.18;6.05;;;;;;;;;;3383519;42;20117;-60
2022/09/24 04:13:50;;;;;;;13.77;6.37;;;;;;;;;;3393230;42;20603;-59
2022/09/24 04:16:16;;;;;;;13.27;6.50;;;;;;;;;;3384289;42;20106;-60
2022/09/24 04:18:42;;;;;;;14.48;6.20;;;;;;;;;;3384262;42;20141;-61
2022/09/24 04:21:08;;;;;;;13.07;6.53;;;;;;;;;;3393245;42;20148;-60
2022/09/24 04:23:34;;;;;;;13.48;6.72;;;;;;;;;;3393349;42;20090;-62
2022/09/24 04:26:01;;;;;;;14.97;6.10;;;;;;;;;;3393200;42;20101;-61
2022/09/24 04:28:30;;;;;;;13.10;6.40;;;;;;;;;;3384376;42;20564;-60
2022/09/24 04:30:56;;;;;;;13.18;6.75;;;;;;;;;;3393120;42;20580;-60
2022/09/24 04:33:22;;;;;;;13.50;6.50;;;;;;;;;;3384141;42;20171;-58
2022/09/24 04:35:48;;;;;;;14.20;6.80;;;;;;;;;;3389497;42;20091;-59
2022/09/24 04:38:14;;;;;;;13.55;6.50;;;;;;;;;;3393010;42;20079;-59
2022/09/24 04:40:40;;;;;;;12.82;6.82;;;;;;;;;;3394103;42;20507;-61
2022/09/24 04:43:06;;;;;;;12.48;7.18;;;;;;;;;;3394725;42;20196;-61
2022/09/24 04:45:32;;;;;;;17.13;7.10;;;;;;;;;;3394696;42;20507;-59
2022/09/24 04:47:58;;;;;;;15.77;6.90;;;;;;;;;;3394607;42;20690;-60
2022/09/24 04:50:28;;;;;;;16.13;7.38;;;;;;;;;;3395890;42;20083;-58
2022/09/24 04:52:54;;;;;;;14.52;7.70;;;;;;;;;;3384196;42;20110;-59
2022/09/24 04:55:21;;;;;;;15.68;7.72;;;;;;;;;;3394707;42;20097;-60
2022/09/24 04:57:47;;;;;;;15.67;7.83;;;;;;;;;;3394708;42;20094;-60
2022/09/24 05:00:14;;;;;;;14.68;8.93;;;;;;;;;;3394847;42;20162;-61
2022/09/24 05:02:41;;;;;;;15.23;8.30;;;;;;;;;;3394821;42;20101;-57
2022/09/24 05:05:07;;;;;;;15.90;8.32;;;;;;;;;;3394643;42;20495;-59
2022/09/24 05:07:33;;;;;;;13.75;7.50;;;;;;;;;;3394709;42;20580;-62
2022/09/24 05:09:59;;;;;;;16.37;7.83;;;;;;;;;;3394445;42;20537;-60
2022/09/24 05:12:25;;;;;;;15.20;7.95;;;;;;;;;;3394575;42;20562;-62
2022/09/24 05:14:51;;;;;;;17.15;8.13;;;;;;;;;;3377704;42;20093;-61
2022/09/24 05:17:17;;;;;;;14.27;7.72;;;;;;;;;;3394470;42;20588;-58
2022/09/24 05:19:43;;;;;;;15.33;8.13;;;;;;;;;;3394580;42;20549;-62
2022/09/24 05:22:09;;;;;;;15.63;7.90;;;;;;;;;;3394684;42;20105;-61
2022/09/24 05:24:35;;;;;;;13.82;7.50;;;;;;;;;;3394351;42;20176;-59
2022/09/24 05:27:10;;;;;;;16.15;7.78;;;;;;;;;;3394369;42;20592;-62
2022/09/24 05:29:40;;;;;;;15.93;8.17;;;;;;;;;;3394139;42;20090;-59
2022/09/24 05:32:07;;;;;;;16.92;8.00;;;;;;;;;;3385325;42;20079;-60
2022/09/24 05:34:33;;;;;;;15.20;8.38;;;;;;;;;;3377904;42;20090;-59
2022/09/24 05:37:00;;;;;;;15.93;7.47;;;;;;;;;;3394014;42;20140;-62
2022/09/24 05:39:27;;;;;;;14.93;7.85;;;;;;;;;;3385457;42;20150;-61
2022/09/24 05:41:53;;;;;;;15.83;8.60;;;;;;;;;;3394444;42;20101;-58
2022/09/24 05:44:20;;;;;;;14.95;7.85;;;;;;;;;;3393675;42;20594;-63
2022/09/24 05:46:47;;;;;;;15.75;7.75;;;;;;;;;;3394235;42;20791;-60
2022/09/24 05:49:13;;;;;;;15.25;8.43;;;;;;;;;;3385066;42;20083;-61
2022/09/24 05:51:39;;;;;;;14.60;7.35;;;;;;;;;;3394726;42;20480;-59
2022/09/24 05:54:05;;;;;;;14.03;7.40;;;;;;;;;;3394582;42;20086;-59
2022/09/24 05:56:31;;;;;;;13.55;6.65;;;;;;;;;;3395002;42;20098;-57
2022/09/24 05:58:59;;;;;;;12.98;6.75;;;;;;;;;;3398701;42;20150;-60
2022/09/24 06:01:28;;;;;;;19.25;7.03;;;;;;;;;;3397374;42;20582;-60
2022/09/24 06:03:57;;;;;;;13.55;7.10;;;;;;;;;;3398113;42;20097;-61
2022/09/24 06:06:24;;;;;;;14.27;7.30;;;;;;;;;;3388285;42;20106;-64
2022/09/24 06:08:50;;;;;;;13.02;6.78;;;;;;;;;;3396840;42;20101;-59
2022/09/24 06:11:17;;;;;;;12.43;7.05;;;;;;;;;;3388627;42;20228;-61
2022/09/24 06:13:43;;;;;;;14.52;7.10;;;;;;;;;;3397573;42;20102;-59
2022/09/24 06:16:10;;;;;;;15.57;6.40;;;;;;;;;;3396116;42;20102;-59
2022/09/24 06:18:38;;;;;;;12.77;6.80;;;;;;;;;;3396759;42;20090;-64
2022/09/24 06:21:14;;;;;;;14.23;6.43;;;;;;;;;;3394545;42;20089;-59
2022/09/24 06:23:40;;;;;;;11.60;6.40;;;;;;;;;;3381712;42;20143;-60
2022/09/24 06:26:08;;;;;;;12.27;6.63;;;;;;;;;;3383999;42;20187;-63
2022/09/24 06:28:34;;;;;;;14.85;6.90;;;;;;;;;;3384156;42;20122;-62
2022/09/24 06:31:00;;;;;;;14.47;6.37;;;;;;;;;;3384900;42;20141;-58
2022/09/24 06:33:26;;;;;;;13.02;6.45;;;;;;;;;;3384886;42;20082;-58
2022/09/24 06:35:52;;;;;;;11.15;5.70;;;;;;;;;;3384794;42;20106;-60
2022/09/24 06:38:19;;;;;;;12.43;5.60;;;;;;;;;;3393507;42;20086;-58
2022/09/24 06:40:45;;;;;;;13.20;5.57;;;;;;;;;;3393771;42;20137;-59
2022/09/24 06:43:12;;;;;;;9.20;4.80;;;;;;;;;;3393590;42;20643;-59
2022/09/24 06:45:39;;;;;;;9.65;4.40;;;;;;;;;;3383408;42;20584;-56
2022/09/24 06:48:05;;;;;;;10.43;4.53;;;;;;;;;;3392515;42;20134;-64
2022/09/24 06:50:33;;;;;;;9.50;3.88;;;;;;;;;;3375872;42;20102;-60
2022/09/24 06:52:59;;;;;;;9.57;4.10;;;;;;;;;;3382129;42;20098;-58
2022/09/24 06:55:25;;;;;;;8.13;3.80;;;;;;;;;;3393406;42;20105;-58
2022/09/24 06:58:11;;;;;;;9.70;3.95;;;;;;;;;;3393529;42;20094;-59
2022/09/24 07:00:37;;;;;;;7.53;3.70;;;;;;;;;;3384336;42;20094;-60
2022/09/24 07:03:04;;;;;;;9.60;3.83;;;;;;;;;;3393198;42;20495;-60
2022/09/24 07:05:32;;;;;;;7.45;3.38;;;;;;;;;;3393378;42;20078;-57
2022/09/24 07:07:58;;;;;;;6.80;3.10;;;;;;;;;;3393326;42;20101;-58
2022/09/24 07:10:25;;;;;;;7.90;3.38;;;;;;;;;;3393642;42;20094;-60
2022/09/24 07:12:51;;;;;;;8.20;3.10;;;;;;;;;;3393597;42;20102;-60
2022/09/24 07:15:17;;;;;;;10.30;2.88;;;;;;;;;;3394980;42;20098;-60
2022/09/24 07:17:43;;;;;;;7.72;3.35;;;;;;;;;;3384837;42;20098;-59
2022/09/24 07:20:09;;;;;;;8.67;3.00;;;;;;;;;;3393450;42;20094;-60
2022/09/24 07:22:39;;;;;;;7.78;2.97;;;;;;;;;;3393412;42;20626;-60
2022/09/24 07:25:07;;;;;;;8.57;3.15;;;;;;;;;;3391430;42;20117;-58
2022/09/24 07:27:34;;;;;;;8.18;3.10;;;;;;;;;;3393392;42;20098;-58
2022/09/24 07:30:00;;;;;;;7.75;3.15;;;;;;;;;;3382935;42;20130;-58
2022/09/24 07:32:26;;;;;;;6.80;2.70;;;;;;;;;;3392211;42;20086;-58
2022/09/24 07:34:53;;;;;;;7.70;2.97;;;;;;;;;;3393071;42;20176;-60
2022/09/24 07:37:19;;;;;;;6.70;2.70;;;;;;;;;;3382924;42;20095;-58
2022/09/24 07:39:45;;;;;;;7.07;2.60;;;;;;;;;;3384370;42;20090;-59
2022/09/24 07:42:11;;;;;;;6.05;2.60;;;;;;;;;;3393131;42;20090;-60
2022/09/24 07:44:37;;;;;;;7.23;2.53;;;;;;;;;;3393233;42;20106;-60
2022/09/24 07:47:03;;;;;;;7.10;2.95;;;;;;;;;;3393287;42;20090;-60
2022/09/24 07:49:31;;;;;;;6.22;2.50;;;;;;;;;;3384261;42;20549;-61
2022/09/24 07:51:58;;;;;;;7.68;2.40;;;;;;;;;;3383960;42;20133;-58
2022/09/24 07:54:25;;;;;;;5.50;2.20;;;;;;;;;;3393478;42;20089;-64
2022/09/24 07:56:51;;;;;;;6.03;2.23;;;;;;;;;;3393178;42;20196;-60
2022/09/24 07:59:19;;;;;;;6.15;2.33;;;;;;;;;;3382241;42;20207;-58
2022/09/24 08:01:45;;;;;;;6.10;2.45;;;;;;;;;;3393071;42;20082;-60
2022/09/24 08:04:11;;;;;;;6.50;2.20;;;;;;;;;;3393097;42;20146;-62
2022/09/24 08:06:37;;;;;;;8.07;2.37;;;;;;;;;;3382462;42;20098;-57
2022/09/24 08:09:03;;;;;;;6.57;2.50;;;;;;;;;;3391306;42;20438;-60
2022/09/24 08:11:29;;;;;;;8.77;2.50;;;;;;;;;;3393193;42;20565;-60
2022/09/24 08:13:56;;;;;;;5.90;2.17;;;;;;;;;;3393129;42;20154;-59
2022/09/24 08:16:23;;;;;;;7.07;2.38;;;;;;;;;;3392706;42;20137;-59
2022/09/24 08:18:49;;;;;;;6.07;1.92;;;;;;;;;;3393010;42;20079;-62
2022/09/24 08:21:15;;;;;;;5.73;2.13;;;;;;;;;;3393313;42;21020;-61
2022/09/24 08:23:41;;;;;;;4.82;1.92;;;;;;;;;;3384414;42;20082;-60
2022/09/24 08:26:08;;;;;;;5.82;2.00;;;;;;;;;;3389918;42;20491;-59
2022/09/24 08:28:34;;;;;;;7.28;2.08;;;;;;;;;;3392830;42;20159;-60
2022/09/24 08:31:01;;;;;;;5.13;2.00;;;;;;;;;;3382228;42;20226;-60
2022/09/24 08:33:28;;;;;;;8.35;2.05;;;;;;;;;;3390291;42;20129;-60
2022/09/24 08:35:54;;;;;;;6.80;1.90;;;;;;;;;;3383288;42;20311;-62
2022/09/24 08:38:20;;;;;;;5.50;1.92;;;;;;;;;;3392767;42;20612;-61
2022/09/24 08:41:05;;;;;;;6.50;1.70;;;;;;;;;;3392542;42;20094;-58
2022/09/24 08:43:50;;;;;;;5.60;1.57;;;;;;;;;;3386338;42;20168;-60
2022/09/24 08:49:05;;;;;;;5.18;1.50;;;;;;;;;;3392755;42;20086;-60
2022/09/24 08:51:35;;;;;;;5.57;1.65;;;;;;;;;;3369297;42;20462;-61
2022/09/24 08:54:08;;;;;;;4.97;1.40;;;;;;;;;;3383007;42;20500;-59
2022/09/24 08:56:36;;;;;;;5.97;1.20;;;;;;;;;;3374348;42;20573;-56
2022/09/24 08:59:22;;;;;;;6.30;1.52;;;;;;;;;;3389736;42;20098;-58
2022/09/24 09:01:57;;;;;;;4.72;1.40;;;;;;;;;;3393082;42;20125;-56
2022/09/24 09:04:58;;;;;;;4.25;1.30;;;;;;;;;;3383772;42;20150;-60
2022/09/24 09:10:13;;;;;;;5.90;1.30;;;;;;;;;;3153325;35;20561;-62
2022/09/24 09:12:47;;;;;;;5.35;1.17;;;;;;;;;;3346749;42;20092;-65
2022/09/24 09:15:24;;;;;;;5.05;1.30;;;;;;;;;;3353561;42;20102;-62
2022/09/24 09:17:56;;;;;;;4.82;1.13;;;;;;;;;;3344355;42;20096;-62
2022/09/24 09:20:41;;;;;;;4.65;1.20;;;;;;;;;;3357461;42;20156;-60
2022/09/24 09:23:27;;;;;;;3.87;1.07;;;;;;;;;;3352666;42;20155;-61
2022/09/24 09:25:56;;;;;;;3.88;1.30;;;;;;;;;;3353741;42;20158;-61
2022/09/24 09:28:24;;;;;;;3.88;1.17;;;;;;;;;;3357302;42;20162;-61
2022/09/24 09:30:57;;;;;;;3.53;1.20;;;;;;;;;;3353631;42;20625;-63
2022/09/24 09:33:48;;;;;;;4.47;1.30;;;;;;;;;;3358170;42;20088;-61
2022/09/24 09:36:26;;;;;;;4.07;1.20;;;;;;;;;;3353190;42;20184;-60
2022/09/24 09:39:20;;;;;;;4.75;1.10;;;;;;;;;;3357521;42;20107;-59
2022/09/24 09:41:54;;;;;;;7.50;1.30;;;;;;;;;;3348313;42;20088;-64
2022/09/24 09:44:25;;;;;;;5.03;1.45;;;;;;;;;;3357678;42;20626;-63
2022/09/24 09:47:15;;;;;;;7.65;1.50;;;;;;;;;;3355873;42;20143;-62
2022/09/24 09:49:41;;;;;;;4.40;1.37;;;;;;;;;;3348025;42;20631;-61
2022/09/24 09:52:14;;;;;;;7.32;1.50;;;;;;;;;;3355895;42;20179;-61
2022/09/24 09:54:40;;;;;;;4.25;1.40;;;;;;;;;;3354312;42;20522;-61
2022/09/24 09:57:11;;;;;;;4.65;1.40;;;;;;;;;;3355719;42;20096;-63
2022/09/24 09:59:37;;;;;;;6.05;1.60;;;;;;;;;;3349061;42;20092;-60
2022/09/24 10:02:09;;;;;;;5.70;1.40;;;;;;;;;;3353227;42;20091;-61
2022/09/24 10:04:41;;;;;;;6.00;1.88;;;;;;;;;;3354237;42;20092;-65
2022/09/24 10:07:09;;;;;;;4.78;1.60;;;;;;;;;;3354300;42;20487;-62
2022/09/24 10:09:36;;;;;;;4.25;1.30;;;;;;;;;;3350289;42;20131;-63
2022/09/24 10:12:21;;;;;;;5.35;1.40;;;;;;;;;;3348798;42;20093;-60
2022/09/24 10:15:05;;;;;;;3.60;1.10;;;;;;;;;;3347267;42;20155;-64
2022/09/24 10:17:36;;;;;;;6.53;1.50;;;;;;;;;;3346871;42;20156;-62
2022/09/24 10:20:22;;;;;;;5.03;1.30;;;;;;;;;;3348721;42;20097;-61
2022/09/24 10:22:54;;;;;;;5.65;1.45;;;;;;;;;;3346405;42;20100;-62
2022/09/24 10:25:26;;;;;;;5.95;1.40;;;;;;;;;;3350341;42;20487;-60
2022/09/24 10:27:54;;;;;;;5.13;1.33;;;;;;;;;;3352131;42;20120;-60
2022/09/24 10:30:35;;;;;;;5.68;1.40;;;;;;;;;;3350016;42;20088;-62
2022/09/24 10:33:02;;;;;;;6.95;1.60;;;;;;;;;;3351477;42;20140;-63
2022/09/24 10:35:37;;;;;;;5.45;1.40;;;;;;;;;;3351147;42;20170;-62
2022/09/24 10:38:20;;;;;;;5.30;1.58;;;;;;;;;;3348735;42;20084;-63
2022/09/24 10:40:46;;;;;;;5.53;1.57;;;;;;;;;;3350611;42;20081;-63
2022/09/24 10:43:19;;;;;;;5.10;1.48;;;;;;;;;;3350482;42;20183;-60
2022/09/24 10:46:08;;;;;;;5.32;1.60;;;;;;;;;;3349110;42;20147;-62
2022/09/24 10:48:57;;;;;;;5.00;1.50;;;;;;;;;;3345804;42;20526;-62
2022/09/24 10:51:38;;;;;;;4.57;1.50;;;;;;;;;;3347731;42;20156;-62
2022/09/24 10:54:35;;;;;;;8.37;1.70;;;;;;;;;;3351932;42;20096;-61
2022/09/24 10:57:41;;;;;;;4.80;1.42;;;;;;;;;;3351487;42;20092;-62
2022/09/24 11:00:20;;;;;;;5.55;1.88;;;;;;;;;;3332503;42;20100;-61
2022/09/24 11:03:25;;;;;;;5.28;1.90;;;;;;;;;;3342452;42;20442;-61
2022/09/24 11:06:01;;;;;;;6.25;1.98;;;;;;;;;;3347785;42;20085;-61
2022/09/24 11:08:52;;;;;;;7.27;2.70;;;;;;;;;;3350400;42;20106;-61
2022/09/24 11:11:25;;;;;;;6.85;2.00;;;;;;;;;;3350998;42;20092;-63
2022/09/24 11:14:11;;;;;;;5.85;2.03;;;;;;;;;;3346847;42;20224;-62
2022/09/24 11:16:51;;;;;;;4.70;1.65;;;;;;;;;;3342678;42;20104;-61
2022/09/24 11:19:46;;;;;;;10.25;1.80;;;;;;;;;;3343938;42;20092;-62
2022/09/24 11:22:12;;;;;;;4.60;1.80;;;;;;;;;;3347547;42;20093;-60
2022/09/24 11:24:52;;;;;;;8.23;1.98;;;;;;;;;;3349481;42;20490;-60
2022/09/24 11:27:31;;;;;;;5.28;1.80;;;;;;;;;;3347423;42;20151;-62
2022/09/24 11:30:12;;;;;;;7.18;2.08;;;;;;;;;;3345861;42;20101;-63
2022/09/24 11:32:56;;;;;;;7.43;1.80;;;;;;;;;;3343454;42;20179;-61
2022/09/24 11:35:41;;;;;;;5.17;1.80;;;;;;;;;;3344030;42;20179;-63
2022/09/24 11:38:20;;;;;;;6.00;1.67;;;;;;;;;;3348571;42;20175;-62
2022/09/24 11:41:26;;;;;;;5.18;1.70;;;;;;;;;;3347207;42;20084;-64
2022/09/24 11:44:17;;;;;;;6.65;1.80;;;;;;;;;;3346313;42;20513;-61
2022/09/24 11:47:05;;;;;;;7.38;1.95;;;;;;;;;;3344392;42;20115;-63
2022/09/24 11:49:53;;;;;;;7.00;2.13;;;;;;;;;;3344634;42;20127;-61
2022/09/24 11:52:34;;;;;;;6.47;2.22;;;;;;;;;;3345642;42;20093;-61
2022/09/24 11:55:16;;;;;;;4.85;1.70;;;;;;;;;;3347717;42;20095;-62
2022/09/24 11:58:04;;;;;;;7.50;2.00;;;;;;;;;;3344185;42;20097;-64
2022/09/24 12:00:34;;;;;;;5.20;1.80;;;;;;;;;;3347798;42;20097;-63
2022/09/24 12:03:11;;;;;;;6.57;1.87;;;;;;;;;;3346230;42;20093;-61
2022/09/24 12:06:20;;;;;;;5.95;1.88;;;;;;;;;;3345776;42;20092;-61
2022/09/24 12:08:52;;;;;;;7.43;2.05;;;;;;;;;;3344065;42;20656;-62
2022/09/24 12:11:40;;;;;;;5.25;1.90;;;;;;;;;;3338714;42;20081;-61
2022/09/24 12:14:32;;;;;;;6.15;1.90;;;;;;;;;;3346318;42;20097;-63
2022/09/24 12:17:05;;;;;;;5.73;2.00;;;;;;;;;;3343975;42;20205;-60
2022/09/24 12:19:34;;;;;;;6.05;2.03;;;;;;;;;;3340575;42;20096;-60
2022/09/24 12:22:00;;;;;;;5.25;2.00;;;;;;;;;;3340804;42;20601;-61
2022/09/24 12:24:36;;;;;;;6.47;2.00;;;;;;;;;;3342485;42;20148;-60
2022/09/24 12:27:24;;;;;;;5.53;2.00;;;;;;;;;;3349510;42;20143;-58
2022/09/24 12:33:22;;;;;;;5.32;2.15;;;;;;;;;;3343828;42;20136;-63
2022/09/24 12:36:08;;;;;;;7.03;1.98;;;;;;;;;;3343487;42;20507;-62
2022/09/24 12:38:41;;;;;;;5.40;2.00;;;;;;;;;;3347379;42;20096;-59
2022/09/24 12:41:22;;;;;;;5.00;1.80;;;;;;;;;;3346897;42;20518;-61
2022/09/24 12:43:56;;;;;;;10.13;2.00;;;;;;;;;;3346266;42;20606;-62
2022/09/24 12:46:32;;;;;;;5.80;2.00;;;;;;;;;;3345840;42;20093;-62
2022/09/24 12:48:57;;;;;;;6.10;2.22;;;;;;;;;;3346182;42;20514;-60
2022/09/24 12:51:23;;;;;;;6.05;2.00;;;;;;;;;;3345964;42;20555;-61
2022/09/24 12:54:17;;;;;;;6.20;2.13;;;;;;;;;;3338364;42;20462;-62
2022/09/24 12:56:43;;;;;;;5.90;2.10;;;;;;;;;;3344061;42;20722;-61
2022/09/24 12:59:23;;;;;;;5.65;2.40;;;;;;;;;;3348195;42;20160;-63
2022/09/24 13:01:49;;;;;;;6.10;2.15;;;;;;;;;;3348611;42;20266;-61
2022/09/24 13:04:15;;;;;;;5.53;2.20;;;;;;;;;;3345550;42;20203;-62
2022/09/24 13:06:42;;;;;;;5.90;2.20;;;;;;;;;;3351127;42;20593;-65
2022/09/24 13:09:33;;;;;;;5.68;2.45;;;;;;;;;;3347923;42;20496;-61
2022/09/24 13:12:14;;;;;;;7.20;2.60;;;;;;;;;;3347496;42;20598;-61
2022/09/24 13:14:41;;;;;;;6.05;2.63;;;;;;;;;;3347470;42;20182;-61
2022/09/24 13:17:07;;;;;;;6.20;2.70;;;;;;;;;;3349037;42;20159;-62
2022/09/24 13:19:33;;;;;;;7.37;2.93;;;;;;;;;;3349268;42;20133;-63
2022/09/24 13:21:59;;;;;;;6.40;2.45;;;;;;;;;;3350596;42;20085;-59
2022/09/24 13:24:45;;;;;;;5.75;2.38;;;;;;;;;;3349398;42;20140;-61
2022/09/24 13:27:22;;;;;;;7.07;2.92;;;;;;;;;;3346364;42;20144;-59
2022/09/24 13:30:00;;;;;;;11.60;4.20;;;;;;;;;;3349198;42;20136;-61
2022/09/24 13:32:26;;;;;;;9.55;3.88;;;;;;;;;;3348786;42;20135;-62
2022/09/24 13:34:51;;;;;;;8.80;3.40;;;;;;;;;;3347739;42;20085;-61
2022/09/24 13:37:20;;;;;;;6.63;2.97;;;;;;;;;;3348929;42;20096;-61
2022/09/24 13:39:52;;;;;;;6.63;2.60;;;;;;;;;;3348848;42;20119;-62
2022/09/24 13:42:18;;;;;;;6.60;2.83;;;;;;;;;;3347450;42;20144;-62
2022/09/24 13:44:46;;;;;;;6.80;2.85;;;;;;;;;;3348738;42;20100;-64
2022/09/24 13:47:21;;;;;;;7.50;3.25;;;;;;;;;;3349112;42;20092;-63
2022/09/24 13:49:47;;;;;;;8.00;3.55;;;;;;;;;;3348826;42;20163;-61
2022/09/24 13:52:16;;;;;;;13.33;5.83;;;;;;;;;;3347306;42;20170;-62
2022/09/24 13:54:53;;;;;;;10.60;4.03;;;;;;;;;;3355643;42;20144;-61
2022/09/24 13:57:23;;;;;;;8.18;3.88;;;;;;;;;;3339130;42;20133;-62
2022/09/24 14:00:00;;;;;;;7.85;3.67;;;;;;;;;;3348753;42;20127;-62
2022/09/24 14:02:26;;;;;;;6.97;3.80;;;;;;;;;;3348729;42;20108;-61
2022/09/24 14:04:57;;;;;;;8.40;3.80;;;;;;;;;;3347687;42;20099;-65
2022/09/24 14:07:23;;;;;;;9.18;3.97;;;;;;;;;;3348690;42;20107;-61
2022/09/24 14:09:50;;;;;;;8.27;3.70;;;;;;;;;;3348542;42;20577;-64
2022/09/24 14:12:21;;;;;;;7.07;3.28;;;;;;;;;;3339368;42;20124;-64
2022/09/24 14:14:52;;;;;;;7.40;3.08;;;;;;;;;;3348895;42;20100;-63
2022/09/24 14:17:18;;;;;;;7.27;2.83;;;;;;;;;;3348603;42;20144;-61
2022/09/24 14:19:44;;;;;;;7.65;2.72;;;;;;;;;;3348318;42;20103;-62
2022/09/24 14:22:16;;;;;;;8.60;3.10;;;;;;;;;;3348408;42;20080;-61
2022/09/24 14:24:53;;;;;;;6.93;3.08;;;;;;;;;;3348958;42;20099;-61
2022/09/24 14:27:20;;;;;;;7.57;3.23;;;;;;;;;;3344304;42;20089;-61
2022/09/24 14:29:57;;;;;;;8.00;2.88;;;;;;;;;;3347140;42;20160;-64
2022/09/24 14:32:38;;;;;;;8.13;2.63;;;;;;;;;;3346967;42;20246;-62
2022/09/24 14:35:26;;;;;;;5.68;2.20;;;;;;;;;;3348828;42;20092;-61
2022/09/24 14:37:53;;;;;;;5.47;2.20;;;;;;;;;;3345100;42;20112;-61
2022/09/24 14:40:21;;;;;;;5.17;1.97;;;;;;;;;;3346864;42;20096;-64
2022/09/24 14:42:58;;;;;;;5.85;2.10;;;;;;;;;;3346550;42;20172;-62
2022/09/24 14:45:27;;;;;;;5.75;2.20;;;;;;;;;;3346876;42;20097;-63
2022/09/24 14:48:04;;;;;;;5.32;2.00;;;;;;;;;;3348558;42;20168;-63
2022/09/24 14:50:38;;;;;;;6.25;2.20;;;;;;;;;;3346329;42;20088;-60
2022/09/24 14:53:34;;;;;;;6.63;2.63;;;;;;;;;;3347960;42;20140;-60
2022/09/24 14:56:16;;;;;;;7.25;2.35;;;;;;;;;;3348304;42;20589;-63
2022/09/24 14:58:42;;;;;;;5.60;2.20;;;;;;;;;;3349641;42;20089;-62
2022/09/24 15:01:16;;;;;;;8.50;2.40;;;;;;;;;;3348183;42;20084;-62
2022/09/24 15:03:50;;;;;;;5.85;2.30;;;;;;;;;;3344928;42;20096;-64
2022/09/24 15:06:31;;;;;;;5.67;1.90;;;;;;;;;;3339701;42;20088;-63
2022/09/24 15:09:04;;;;;;;5.80;1.95;;;;;;;;;;3346642;42;20509;-61
2022/09/24 15:11:34;;;;;;;5.78;1.70;;;;;;;;;;3346438;42;20509;-62
2022/09/24 15:14:11;;;;;;;6.13;1.70;;;;;;;;;;3348206;42;20626;-62
2022/09/24 15:16:37;;;;;;;6.07;2.10;;;;;;;;;;3347037;42;20101;-62
2022/09/24 15:19:06;;;;;;;5.63;1.90;;;;;;;;;;3348192;42;20149;-62
2022/09/24 15:21:33;;;;;;;5.10;2.08;;;;;;;;;;3355293;42;20088;-61